Time;durP1;ratioP1;P1;durP2;ratioP2;P2;SDS_P1;SDS_P2;PMS_P1;PMS_P2;Temp;Humidity;BMP_temperature;BMP_pressure;BME280_temperature;BME280_humidity;BME280_pressure;Samples;Min_cycle;Max_cycle;Signal;HPM_P1;HPM_P2
2021/07/10 00:08:33;;;;;;;15.27;12.25;;;;;;;16.17;88.18;100818.94;21241325;27;20043;-71
2021/07/10 00:18:35;;;;;;;15.13;12.13;;;;;;;16.07;89.16;100815.72;21241170;27;20085;-71
2021/07/10 00:28:37;;;;;;;16.15;11.50;;;;;;;15.95;88.65;100794.97;21240066;27;20043;-71
2021/07/10 00:38:40;;;;;;;15.45;11.57;;;;;;;15.85;87.97;100799.69;21238733;27;20088;-71
2021/07/10 00:48:42;;;;;;;15.45;12.48;;;;;;;15.81;88.06;100807.75;21239387;27;20565;-72
2021/07/10 00:58:45;;;;;;;16.20;11.98;;;;;;;15.53;87.43;100798.00;21237321;27;20051;-71
2021/07/10 01:08:48;;;;;;;16.15;12.35;;;;;;;15.17;88.29;100783.25;21235422;27;20100;-69
2021/07/10 01:18:50;;;;;;;24.00;12.63;;;;;;;15.18;89.25;100777.06;21236144;27;20500;-71
2021/07/10 01:28:51;;;;;;;17.58;12.32;;;;;;;15.17;88.64;100775.31;21236719;28;20055;-71
2021/07/10 01:38:53;;;;;;;19.15;14.85;;;;;;;15.19;89.13;100779.66;21235055;28;20039;-69
2021/07/10 01:48:55;;;;;;;20.60;15.75;;;;;;;15.03;89.68;100750.19;21236008;28;20043;-69
2021/07/10 01:58:57;;;;;;;18.25;14.25;;;;;;;14.99;89.52;100742.44;21234985;28;20043;-69
2021/07/10 02:08:58;;;;;;;16.88;13.73;;;;;;;15.01;89.34;100745.91;21237478;27;20493;-69
2021/07/10 02:19:00;;;;;;;27.83;15.00;;;;;;;14.93;89.26;100743.47;21249616;27;21268;-71
2021/07/10 02:29:05;;;;;;;21.23;14.60;;;;;;;14.82;89.75;100740.28;21249196;27;20047;-72
2021/07/10 02:39:07;;;;;;;26.08;14.93;;;;;;;14.85;89.34;100730.53;21248153;27;20073;-72
2021/07/10 02:49:09;;;;;;;24.67;14.43;;;;;;;14.71;90.48;100729.16;21247988;27;20050;-71
2021/07/10 02:59:11;;;;;;;22.35;15.00;;;;;;;14.55;90.76;100715.53;21247052;27;20058;-72
2021/07/10 03:09:13;;;;;;;20.25;15.35;;;;;;;14.53;90.73;100714.72;21245692;27;20039;-71
2021/07/10 03:19:14;;;;;;;20.83;14.52;;;;;;;14.46;90.19;100716.59;21244387;27;20043;-71
2021/07/10 03:29:16;;;;;;;19.23;12.65;;;;;;;14.34;88.83;100716.94;21244337;27;20088;-71
2021/07/10 03:39:18;;;;;;;26.98;13.68;;;;;;;14.28;89.92;100712.69;21243353;27;20126;-71
2021/07/10 03:49:20;;;;;;;29.73;13.88;;;;;;;14.36;90.60;100710.72;21243493;27;20054;-71
2021/07/10 03:59:22;;;;;;;18.77;11.52;;;;;;;14.19;91.47;100701.53;21242094;27;20046;-71
2021/07/10 04:09:23;;;;;;;30.35;10.80;;;;;;;14.08;91.42;100715.84;21240366;27;20062;-71
2021/07/10 04:19:25;;;;;;;20.95;12.98;;;;;;;14.32;90.54;100703.81;21241113;27;20047;-71
2021/07/10 04:29:27;;;;;;;22.58;13.07;;;;;;;14.27;89.82;100699.56;21239693;27;20108;-71
2021/07/10 04:39:29;;;;;;;34.17;13.88;;;;;;;14.30;90.50;100712.66;21237272;27;20039;-71
2021/07/10 04:49:30;;;;;;;25.88;11.80;;;;;;;14.33;89.84;100715.22;21237613;27;20043;-72
2021/07/10 04:59:32;;;;;;;22.35;11.63;;;;;;;14.71;88.68;100713.31;21237311;27;20043;-72
2021/07/10 05:09:34;;;;;;;17.85;10.27;;;;;;;14.75;88.93;100699.16;21236262;27;20100;-72
2021/07/10 05:19:36;;;;;;;32.58;11.40;;;;;;;14.76;89.59;100716.72;21236868;27;20047;-69
2021/07/10 05:29:38;;;;;;;16.40;11.05;;;;;;;15.11;87.68;100711.31;21237422;28;20063;-69
2021/07/10 05:39:42;;;;;;;12.95;10.52;;;;;;;15.49;89.01;100706.63;21235202;28;20604;-69
2021/07/10 05:49:44;;;;;;;16.55;11.90;;;;;;;15.52;87.33;100710.94;21249675;27;20043;-69
2021/07/10 05:59:46;;;;;;;22.77;12.85;;;;;;;15.44;88.61;100716.47;21251746;27;20447;-69
2021/07/10 06:09:47;;;;;;;15.05;11.73;;;;;;;16.04;85.67;100699.59;21250560;27;20054;-69
2021/07/10 06:19:49;;;;;;;17.25;10.90;;;;;;;16.24;84.49;100695.41;21251228;27;20039;-72
2021/07/10 06:29:51;;;;;;;15.35;10.27;;;;;;;16.70;81.90;100697.31;21250229;27;20500;-72
2021/07/10 06:39:53;;;;;;;12.45;10.35;;;;;;;16.62;82.43;100692.31;21248383;27;20066;-69
2021/07/10 06:49:54;;;;;;;12.25;9.15;;;;;;;17.28;80.39;100699.59;21248676;27;20450;-69
2021/07/10 07:00:00;;;;;;;14.38;11.10;;;;;;;17.26;81.09;100693.50;21245454;27;20047;-69
2021/07/10 07:10:03;;;;;;;12.63;10.93;;;;;;;17.75;79.03;100681.00;21225737;27;20035;-70
2021/07/10 07:20:07;;;;;;;14.23;11.85;;;;;;;17.57;80.57;100667.53;21246740;27;20054;-70
2021/07/10 07:30:13;;;;;;;16.05;11.98;;;;;;;17.80;78.54;100653.38;21245347;27;20051;-69
2021/07/10 07:40:16;;;;;;;14.68;11.95;;;;;;;17.77;79.59;100652.66;21244935;27;20051;-69
2021/07/10 07:50:19;;;;;;;17.02;12.95;;;;;;;18.44;78.20;100633.84;21243345;27;20047;-69
2021/07/10 08:00:23;;;;;;;20.35;16.92;;;;;;;17.86;80.56;100626.63;21241740;27;20046;-68
2021/07/10 08:10:28;;;;;;;15.80;13.05;;;;;;;18.51;77.67;100618.53;21242584;27;20567;-68
2021/07/10 08:20:30;;;;;;;13.20;11.25;;;;;;;19.10;77.35;100605.19;21242346;27;20047;-68
2021/07/10 08:30:32;;;;;;;11.65;9.60;;;;;;;19.25;73.27;100600.06;21240051;27;20050;-68
2021/07/10 08:40:34;;;;;;;13.90;10.13;;;;;;;19.98;69.88;100591.13;21239899;27;20039;-68
2021/07/10 08:50:35;;;;;;;11.77;8.02;;;;;;;20.73;68.08;100579.16;21239027;27;20047;-69
2021/07/10 09:00:40;;;;;;;9.02;6.40;;;;;;;21.22;65.18;100571.97;21237775;27;20043;-69
2021/07/10 09:10:44;;;;;;;10.48;7.93;;;;;;;21.21;63.54;100586.19;21238430;27;20124;-69
2021/07/10 09:20:48;;;;;;;8.93;5.63;;;;;;;21.96;60.54;100573.00;21237698;27;20054;-69
2021/07/10 09:30:50;;;;;;;;;;;;;;;22.37;59.95;100572.28;21237172;28;20055;-69
2021/07/10 09:41:10;;;;;;;7.82;4.95;;;;;;;23.01;56.55;100562.91;21237353;28;19971;-69
2021/07/10 09:51:30;;;;;;;8.00;5.10;;;;;;;23.59;54.49;100545.69;21236426;27;20047;-70
2021/07/10 10:01:36;;;;;;;7.57;4.47;;;;;;;23.74;54.86;100525.09;21234037;28;20447;-68
2021/07/10 10:11:57;;;;;;;6.53;4.75;;;;;;;23.60;50.99;100512.66;21233273;28;20044;-68
2021/07/10 10:22:03;;;;;;;6.85;4.25;;;;;;;23.66;49.10;100506.03;21236080;28;20488;-69
2021/07/10 10:32:06;;;;;;;7.82;4.85;;;;;;;23.21;50.86;100490.31;21240638;27;20043;-68
2021/07/10 10:42:21;;;;;;;6.53;4.23;;;;;;;24.08;51.75;100472.78;21250739;27;20043;-72
2021/07/10 10:52:34;;;;;;;5.35;3.65;;;;;;;24.56;47.26;100456.88;21239284;27;20104;-70
2021/07/10 11:02:36;;;;;;;7.85;4.20;;;;;;;24.21;47.09;100449.56;21162791;28;20056;-69
2021/07/10 11:12:50;;;;;;;7.70;4.20;;;;;;;24.48;49.93;100446.75;21163495;28;20046;-69
2021/07/10 11:22:53;;;;;;;;;;;;;;;24.28;48.55;100429.41;21153954;28;20467;-68
2021/07/10 11:32:54;;;;;;;5.65;3.28;;;;;;;24.93;45.13;100403.28;21156421;27;19920;-69
2021/07/10 11:43:06;;;;;;;6.47;3.63;;;;;;;25.02;46.28;100381.16;21154870;28;20471;-69
2021/07/10 11:53:11;;;;;;;5.93;2.88;;;;;;;25.58;41.83;100373.22;21173540;27;20128;-69
2021/07/10 12:03:25;;;;;;;5.57;3.05;;;;;;;25.56;41.39;100359.09;21240131;27;20092;-69
2021/07/10 12:13:28;;;;;;;5.40;3.30;;;;;;;25.44;45.79;100360.94;21239560;27;20039;-69
2021/07/10 12:23:32;;;;;;;;;;;;;;;25.88;42.76;100355.72;21240167;27;20300;-69
2021/07/10 12:33:39;;;;;;;6.63;3.33;;;;;;;25.35;43.27;100344.72;21238545;27;20419;-69
2021/07/10 12:43:41;;;;;;;4.60;3.17;;;;;;;26.13;42.11;100338.47;21237921;27;20451;-69
2021/07/10 12:53:45;;;;;;;6.07;3.63;;;;;;;26.61;43.11;100322.84;21236365;27;20039;-69
2021/07/10 13:03:51;;;;;;;4.72;2.95;;;;;;;25.99;42.07;100320.81;21233861;27;20101;-69
2021/07/10 13:13:57;;;;;;;7.75;3.20;;;;;;;25.63;43.26;100312.03;21233370;27;20084;-69
2021/07/10 13:24:03;;;;;;;4.30;2.90;;;;;;;26.40;41.22;100295.06;21233012;27;20048;-69
2021/07/10 13:34:14;;;;;;;5.10;3.30;;;;;;;26.22;39.94;100281.38;21232802;28;20610;-69
2021/07/10 13:44:20;;;;;;;6.57;3.05;;;;;;;26.12;40.83;100259.81;21233307;28;20077;-69
2021/07/10 13:54:28;;;;;;;6.05;2.90;;;;;;;25.84;43.33;100245.97;21232036;28;20047;-69
2021/07/10 14:04:30;;;;;;;4.40;2.60;;;;;;;25.84;42.82;100229.88;21235429;27;20447;-69
2021/07/10 14:14:32;;;;;;;8.50;3.90;;;;;;;26.13;43.12;100223.94;21247484;27;20043;-69
2021/07/10 14:24:34;;;;;;;4.70;2.45;;;;;;;25.73;41.97;100205.75;21248232;27;20059;-69
2021/07/10 14:34:36;;;;;;;8.35;3.70;;;;;;;25.87;44.95;100211.81;21245018;27;20294;-69
2021/07/10 14:44:38;;;;;;;4.80;2.90;;;;;;;26.17;44.15;100195.88;21245088;27;20124;-69
2021/07/10 14:54:41;;;;;;;5.13;3.00;;;;;;;26.41;43.04;100184.03;21245815;27;20039;-69
2021/07/10 15:04:42;;;;;;;4.65;2.80;;;;;;;26.28;41.17;100174.31;21243303;27;20039;-69
2021/07/10 15:14:44;;;;;;;4.85;2.92;;;;;;;25.89;42.17;100169.66;21243316;27;20451;-68
2021/07/10 15:24:46;;;;;;;6.65;2.95;;;;;;;26.74;41.35;100173.09;21241247;27;20412;-69
2021/07/10 15:34:48;;;;;;;3.75;2.40;;;;;;;26.66;39.85;100146.06;21241049;27;20489;-69
2021/07/10 15:44:49;;;;;;;6.68;2.88;;;;;;;26.36;40.35;100133.41;21239042;27;20108;-68
2021/07/10 15:54:51;;;;;;;4.00;2.63;;;;;;;26.68;41.39;100117.22;21238682;27;20349;-69
2021/07/10 16:04:53;;;;;;;4.10;2.60;;;;;;;26.51;40.66;100099.06;21237710;27;20470;-68
2021/07/10 16:14:54;;;;;;;5.00;3.08;;;;;;;26.43;40.27;100085.44;21238943;27;20100;-70
2021/07/10 16:24:56;;;;;;;4.60;2.60;;;;;;;26.36;40.38;100066.31;21237951;27;20528;-69
2021/07/10 16:34:58;;;;;;;5.32;2.67;;;;;;;26.74;40.82;100062.97;21237042;27;20043;-69
2021/07/10 16:45:00;;;;;;;4.63;2.55;;;;;;;26.39;41.54;100049.91;21236062;27;20050;-69
2021/07/10 16:55:05;;;;;;;4.40;2.60;;;;;;;26.20;41.75;100050.66;21235923;27;20518;-69
2021/07/10 17:05:07;;;;;;;5.32;2.40;;;;;;;26.34;40.89;100039.56;21235909;27;20050;-69
2021/07/10 17:15:11;;;;;;;5.47;3.13;;;;;;;25.74;43.06;100030.44;21236793;27;20569;-69
2021/07/10 17:25:14;;;;;;;7.82;4.88;;;;;;;25.66;44.70;100029.38;21235745;28;20048;-69
2021/07/10 17:35:16;;;;;;;5.43;2.80;;;;;;;25.51;43.87;100034.22;21234920;28;20039;-69
2021/07/10 17:45:22;;;;;;;7.13;4.35;;;;;;;25.01;46.42;100015.13;21247754;27;20042;-69
2021/07/10 17:55:24;;;;;;;6.55;3.35;;;;;;;24.76;47.05;100022.44;21249112;27;20481;-69
2021/07/10 18:05:26;;;;;;;5.63;2.70;;;;;;;24.55;48.06;100019.69;21249455;27;20043;-69
2021/07/10 18:15:28;;;;;;;5.07;2.72;;;;;;;24.27;52.97;100025.50;21248423;27;20116;-69
2021/07/10 18:25:30;;;;;;;5.15;2.83;;;;;;;23.87;54.66;100025.09;21248496;27;20039;-69
2021/07/10 18:35:31;;;;;;;6.82;3.25;;;;;;;23.68;55.92;100017.63;21245413;27;20051;-69
2021/07/10 18:45:33;;;;;;;5.88;3.00;;;;;;;23.49;56.15;100013.63;21246007;27;20049;-69
2021/07/10 18:55:37;;;;;;;6.05;4.05;;;;;;;23.31;59.20;100073.78;21241768;27;20047;-69
2021/07/10 19:05:39;;;;;;;10.77;5.53;;;;;;;20.78;75.21;100134.50;21237759;27;20043;-68
2021/07/10 19:15:41;;;;;;;18.27;8.93;;;;;;;20.37;81.96;100215.00;21241149;27;20096;-68
2021/07/10 19:25:44;;;;;;;12.43;8.07;;;;;;;20.22;83.80;100217.63;21243641;27;20058;-68
2021/07/10 19:35:46;;;;;;;11.82;6.60;;;;;;;19.89;82.25;100230.19;21237382;27;20047;-69
2021/07/10 19:45:48;;;;;;;15.68;9.07;;;;;;;19.75;84.48;100238.09;21240069;27;20467;-68
2021/07/10 19:55:51;;;;;;;11.73;7.72;;;;;;;19.44;84.98;100245.06;21238316;27;20043;-68
2021/07/10 20:05:52;;;;;;;13.77;9.27;;;;;;;19.11;85.04;100248.59;21236361;27;20047;-68
2021/07/10 20:15:55;;;;;;;8.00;6.43;;;;;;;19.03;85.73;100273.84;21232954;27;20047;-69
2021/07/10 20:25:56;;;;;;;8.65;5.70;;;;;;;19.02;86.16;100288.91;21228688;27;20043;-69
2021/07/10 20:36:01;;;;;;;7.40;5.28;;;;;;;19.11;84.98;100308.78;21235580;27;20050;-69
2021/07/10 20:46:03;;;;;;;6.65;4.20;;;;;;;19.23;84.32;100358.59;21237049;27;20043;-69
2021/07/10 20:56:05;;;;;;;8.13;3.33;;;;;;;19.11;81.86;100357.41;21236545;27;20051;-69
2021/07/10 21:06:06;;;;;;;7.60;4.57;;;;;;;18.96;83.49;100358.19;21234121;27;20072;-68
2021/07/10 21:16:09;;;;;;;7.40;4.43;;;;;;;19.11;85.08;100359.22;21216118;27;20462;-69
2021/07/10 21:26:11;;;;;;;6.18;4.07;;;;;;;19.02;84.61;100360.56;21234910;27;20078;-69
2021/07/10 21:36:12;;;;;;;7.07;3.88;;;;;;;19.04;83.74;100363.97;21233452;28;20096;-69
2021/07/10 21:46:14;;;;;;;6.65;4.45;;;;;;;18.94;84.15;100347.69;21233264;28;20386;-70
2021/07/10 21:56:16;;;;;;;7.07;4.00;;;;;;;18.79;84.39;100331.69;21233263;28;20062;-69
2021/07/10 22:06:18;;;;;;;5.47;3.80;;;;;;;18.75;84.21;100324.81;21229691;28;20112;-69
2021/07/10 22:16:21;;;;;;;6.70;3.10;;;;;;;18.57;84.00;100335.38;21226025;28;20047;-69
2021/07/10 22:26:24;;;;;;;7.07;2.72;;;;;;;18.39;84.00;100333.63;21230568;27;20126;-69
2021/07/10 22:36:26;;;;;;;6.10;2.70;;;;;;;18.26;83.94;100351.09;21240272;27;20043;-69
2021/07/10 22:46:28;;;;;;;5.40;2.75;;;;;;;18.02;84.52;100356.63;21240111;27;20425;-69
2021/07/10 22:56:32;;;;;;;6.13;3.05;;;;;;;18.07;84.40;100381.09;21239461;27;20047;-69
2021/07/10 23:06:34;;;;;;;5.30;2.92;;;;;;;17.98;85.34;100376.22;21218787;27;20055;-69
2021/07/10 23:16:36;;;;;;;5.57;3.10;;;;;;;17.84;84.33;100384.81;21238298;27;20047;-69
2021/07/10 23:26:38;;;;;;;6.40;3.15;;;;;;;17.78;83.79;100392.19;21236251;27;20100;-69
2021/07/10 23:36:39;;;;;;;7.75;3.25;;;;;;;17.65;83.19;100405.94;21234357;27;20046;-69
2021/07/10 23:46:43;;;;;;;7.85;3.00;;;;;;;17.50;83.69;100417.22;21236075;27;20083;-69
2021/07/10 23:56:45;;;;;;;9.80;3.20;;;;;;;17.55;83.49;100409.06;21234420;27;20123;-68
